sensor_id;sensor_type;location;lat;lon;timestamp;P1;durP1;ratioP1;P2;durP2;ratioP2
14316;SDS011;7242;50.858;6.586;2023-04-09T00:02:56;27.00;;;24.10;;
14316;SDS011;7242;50.858;6.586;2023-04-09T00:05:57;27.13;;;24.23;;
14316;SDS011;7242;50.858;6.586;2023-04-09T00:08:58;28.60;;;25.37;;
14316;SDS011;7242;50.858;6.586;2023-04-09T00:11:58;29.40;;;25.83;;
14316;SDS011;7242;50.858;6.586;2023-04-09T00:15:01;29.53;;;26.33;;
14316;SDS011;7242;50.858;6.586;2023-04-09T00:18:02;30.17;;;26.53;;
14316;SDS011;7242;50.858;6.586;2023-04-09T00:21:03;31.13;;;27.73;;
14316;SDS011;7242;50.858;6.586;2023-04-09T00:24:04;29.63;;;26.43;;
14316;SDS011;7242;50.858;6.586;2023-04-09T00:27:05;29.67;;;26.47;;
14316;SDS011;7242;50.858;6.586;2023-04-09T00:30:06;31.00;;;27.70;;
14316;SDS011;7242;50.858;6.586;2023-04-09T00:33:08;30.87;;;27.00;;
14316;SDS011;7242;50.858;6.586;2023-04-09T00:36:09;31.60;;;27.80;;
14316;SDS011;7242;50.858;6.586;2023-04-09T00:39:09;28.93;;;25.83;;
14316;SDS011;7242;50.858;6.586;2023-04-09T00:42:10;31.27;;;27.77;;
14316;SDS011;7242;50.858;6.586;2023-04-09T00:45:11;32.23;;;28.73;;
14316;SDS011;7242;50.858;6.586;2023-04-09T00:48:12;30.70;;;26.53;;
14316;SDS011;7242;50.858;6.586;2023-04-09T00:51:13;32.63;;;27.23;;
14316;SDS011;7242;50.858;6.586;2023-04-09T00:54:14;31.37;;;27.97;;
14316;SDS011;7242;50.858;6.586;2023-04-09T00:57:16;29.93;;;26.37;;
14316;SDS011;7242;50.858;6.586;2023-04-09T01:00:17;30.53;;;27.23;;
14316;SDS011;7242;50.858;6.586;2023-04-09T01:03:18;31.97;;;27.37;;
14316;SDS011;7242;50.858;6.586;2023-04-09T01:09:47;28.93;;;25.83;;
14316;SDS011;7242;50.858;6.586;2023-04-09T01:16:21;29.30;;;26.13;;
14316;SDS011;7242;50.858;6.586;2023-04-09T01:22:30;31.57;;;26.80;;
14316;SDS011;7242;50.858;6.586;2023-04-09T01:25:36;28.83;;;25.73;;
14316;SDS011;7242;50.858;6.586;2023-04-09T01:28:46;27.13;;;24.23;;
14316;SDS011;7242;50.858;6.586;2023-04-09T01:31:48;26.93;;;23.93;;
14316;SDS011;7242;50.858;6.586;2023-04-09T01:34:50;27.33;;;24.37;;
14316;SDS011;7242;50.858;6.586;2023-04-09T01:37:52;27.60;;;23.17;;
14316;SDS011;7242;50.858;6.586;2023-04-09T01:40:54;23.13;;;20.70;;
14316;SDS011;7242;50.858;6.586;2023-04-09T01:43:56;26.07;;;21.07;;
14316;SDS011;7242;50.858;6.586;2023-04-09T01:47:00;24.63;;;21.30;;
14316;SDS011;7242;50.858;6.586;2023-04-09T01:50:02;23.90;;;21.40;;
14316;SDS011;7242;50.858;6.586;2023-04-09T01:53:03;23.30;;;20.80;;
14316;SDS011;7242;50.858;6.586;2023-04-09T01:56:04;23.83;;;21.23;;
14316;SDS011;7242;50.858;6.586;2023-04-09T01:59:05;27.30;;;23.60;;
14316;SDS011;7242;50.858;6.586;2023-04-09T02:02:09;26.83;;;22.97;;
14316;SDS011;7242;50.858;6.586;2023-04-09T02:05:16;26.27;;;23.43;;
14316;SDS011;7242;50.858;6.586;2023-04-09T02:08:19;27.03;;;23.93;;
14316;SDS011;7242;50.858;6.586;2023-04-09T02:11:21;33.10;;;28.10;;
14316;SDS011;7242;50.858;6.586;2023-04-09T02:14:24;32.13;;;27.23;;
14316;SDS011;7242;50.858;6.586;2023-04-09T02:17:25;31.67;;;26.93;;
14316;SDS011;7242;50.858;6.586;2023-04-09T02:20:26;27.97;;;24.97;;
14316;SDS011;7242;50.858;6.586;2023-04-09T02:23:28;28.47;;;25.37;;
14316;SDS011;7242;50.858;6.586;2023-04-09T02:26:32;28.63;;;24.83;;
14316;SDS011;7242;50.858;6.586;2023-04-09T02:29:32;28.77;;;25.77;;
14316;SDS011;7242;50.858;6.586;2023-04-09T02:32:33;26.87;;;23.97;;
14316;SDS011;7242;50.858;6.586;2023-04-09T02:35:34;28.70;;;25.57;;
14316;SDS011;7242;50.858;6.586;2023-04-09T02:38:35;27.83;;;24.73;;
14316;SDS011;7242;50.858;6.586;2023-04-09T02:41:36;27.13;;;24.20;;
14316;SDS011;7242;50.858;6.586;2023-04-09T02:44:37;26.57;;;23.73;;
14316;SDS011;7242;50.858;6.586;2023-04-09T02:47:38;27.70;;;24.70;;
14316;SDS011;7242;50.858;6.586;2023-04-09T02:50:39;28.37;;;24.20;;
14316;SDS011;7242;50.858;6.586;2023-04-09T02:53:41;28.83;;;24.13;;
14316;SDS011;7242;50.858;6.586;2023-04-09T02:56:42;30.00;;;26.13;;
14316;SDS011;7242;50.858;6.586;2023-04-09T02:59:43;32.00;;;26.30;;
14316;SDS011;7242;50.858;6.586;2023-04-09T03:02:44;32.47;;;27.20;;
14316;SDS011;7242;50.858;6.586;2023-04-09T03:05:45;32.77;;;26.43;;
14316;SDS011;7242;50.858;6.586;2023-04-09T03:08:46;30.47;;;25.80;;
14316;SDS011;7242;50.858;6.586;2023-04-09T03:11:47;31.40;;;26.37;;
14316;SDS011;7242;50.858;6.586;2023-04-09T03:14:47;31.80;;;25.70;;
14316;SDS011;7242;50.858;6.586;2023-04-09T03:17:48;38.37;;;26.73;;
14316;SDS011;7242;50.858;6.586;2023-04-09T03:20:49;30.80;;;25.27;;
14316;SDS011;7242;50.858;6.586;2023-04-09T03:23:50;35.23;;;28.10;;
14316;SDS011;7242;50.858;6.586;2023-04-09T03:26:51;34.77;;;28.67;;
14316;SDS011;7242;50.858;6.586;2023-04-09T03:29:54;34.50;;;28.50;;
14316;SDS011;7242;50.858;6.586;2023-04-09T03:32:57;78.60;;;31.40;;
14316;SDS011;7242;50.858;6.586;2023-04-09T03:35:59;48.00;;;30.23;;
14316;SDS011;7242;50.858;6.586;2023-04-09T03:39:17;94.63;;;31.50;;
14316;SDS011;7242;50.858;6.586;2023-04-09T03:42:19;89.57;;;32.80;;
14316;SDS011;7242;50.858;6.586;2023-04-09T03:45:22;36.60;;;29.37;;
14316;SDS011;7242;50.858;6.586;2023-04-09T03:48:26;38.60;;;29.97;;
14316;SDS011;7242;50.858;6.586;2023-04-09T03:51:29;36.63;;;30.13;;
14316;SDS011;7242;50.858;6.586;2023-04-09T03:54:32;44.50;;;27.10;;
14316;SDS011;7242;50.858;6.586;2023-04-09T03:57:35;28.53;;;23.90;;
14316;SDS011;7242;50.858;6.586;2023-04-09T04:00:38;69.93;;;25.80;;
14316;SDS011;7242;50.858;6.586;2023-04-09T04:04:01;55.47;;;26.07;;
14316;SDS011;7242;50.858;6.586;2023-04-09T04:07:13;27.77;;;24.47;;
14316;SDS011;7242;50.858;6.586;2023-04-09T04:10:21;33.30;;;24.50;;
14316;SDS011;7242;50.858;6.586;2023-04-09T04:13:22;32.30;;;25.87;;
14316;SDS011;7242;50.858;6.586;2023-04-09T04:16:28;29.33;;;24.70;;
14316;SDS011;7242;50.858;6.586;2023-04-09T04:19:30;33.07;;;26.23;;
14316;SDS011;7242;50.858;6.586;2023-04-09T04:22:32;28.77;;;25.20;;
14316;SDS011;7242;50.858;6.586;2023-04-09T04:25:34;34.80;;;26.67;;
14316;SDS011;7242;50.858;6.586;2023-04-09T04:28:36;37.30;;;26.70;;
14316;SDS011;7242;50.858;6.586;2023-04-09T04:31:37;30.67;;;25.53;;
14316;SDS011;7242;50.858;6.586;2023-04-09T04:34:38;29.10;;;24.80;;
14316;SDS011;7242;50.858;6.586;2023-04-09T04:37:50;30.53;;;25.47;;
14316;SDS011;7242;50.858;6.586;2023-04-09T04:40:54;30.17;;;26.00;;
14316;SDS011;7242;50.858;6.586;2023-04-09T04:43:56;31.07;;;26.50;;
14316;SDS011;7242;50.858;6.586;2023-04-09T04:46:59;29.13;;;25.07;;
14316;SDS011;7242;50.858;6.586;2023-04-09T04:49:59;29.17;;;24.73;;
14316;SDS011;7242;50.858;6.586;2023-04-09T04:53:00;26.23;;;23.33;;
14316;SDS011;7242;50.858;6.586;2023-04-09T04:56:06;26.97;;;23.17;;
14316;SDS011;7242;50.858;6.586;2023-04-09T04:59:19;29.30;;;25.50;;
14316;SDS011;7242;50.858;6.586;2023-04-09T05:02:31;30.10;;;25.70;;
14316;SDS011;7242;50.858;6.586;2023-04-09T05:05:49;30.43;;;26.40;;
14316;SDS011;7242;50.858;6.586;2023-04-09T05:08:50;28.10;;;25.03;;
14316;SDS011;7242;50.858;6.586;2023-04-09T05:11:52;30.30;;;25.43;;
14316;SDS011;7242;50.858;6.586;2023-04-09T05:14:54;27.60;;;24.60;;
14316;SDS011;7242;50.858;6.586;2023-04-09T05:17:55;28.33;;;24.97;;
14316;SDS011;7242;50.858;6.586;2023-04-09T05:20:57;25.47;;;22.77;;
14316;SDS011;7242;50.858;6.586;2023-04-09T05:24:02;25.10;;;22.40;;
14316;SDS011;7242;50.858;6.586;2023-04-09T05:27:05;24.23;;;21.57;;
14316;SDS011;7242;50.858;6.586;2023-04-09T05:30:08;22.47;;;20.17;;
14316;SDS011;7242;50.858;6.586;2023-04-09T05:33:10;23.93;;;21.33;;
14316;SDS011;7242;50.858;6.586;2023-04-09T05:36:17;22.10;;;19.80;;
14316;SDS011;7242;50.858;6.586;2023-04-09T05:39:18;22.60;;;20.23;;
14316;SDS011;7242;50.858;6.586;2023-04-09T05:42:19;22.07;;;19.83;;
14316;SDS011;7242;50.858;6.586;2023-04-09T05:45:41;21.00;;;18.90;;
14316;SDS011;7242;50.858;6.586;2023-04-09T05:48:42;21.40;;;19.30;;
14316;SDS011;7242;50.858;6.586;2023-04-09T05:51:44;22.87;;;20.50;;
14316;SDS011;7242;50.858;6.586;2023-04-09T05:54:48;21.43;;;19.33;;
14316;SDS011;7242;50.858;6.586;2023-04-09T05:57:54;22.80;;;20.50;;
14316;SDS011;7242;50.858;6.586;2023-04-09T06:00:55;23.93;;;21.43;;
14316;SDS011;7242;50.858;6.586;2023-04-09T06:03:56;23.43;;;20.93;;
14316;SDS011;7242;50.858;6.586;2023-04-09T06:06:57;21.93;;;19.73;;
14316;SDS011;7242;50.858;6.586;2023-04-09T06:09:59;21.67;;;19.40;;
14316;SDS011;7242;50.858;6.586;2023-04-09T06:13:01;21.53;;;19.20;;
14316;SDS011;7242;50.858;6.586;2023-04-09T06:16:05;22.97;;;20.47;;
14316;SDS011;7242;50.858;6.586;2023-04-09T06:19:07;23.10;;;20.10;;
14316;SDS011;7242;50.858;6.586;2023-04-09T06:22:08;23.00;;;19.93;;
14316;SDS011;7242;50.858;6.586;2023-04-09T06:25:10;23.77;;;20.40;;
14316;SDS011;7242;50.858;6.586;2023-04-09T06:28:10;23.70;;;20.40;;
14316;SDS011;7242;50.858;6.586;2023-04-09T06:31:11;22.77;;;19.50;;
14316;SDS011;7242;50.858;6.586;2023-04-09T06:34:12;22.70;;;19.50;;
14316;SDS011;7242;50.858;6.586;2023-04-09T06:37:13;24.53;;;21.23;;
14316;SDS011;7242;50.858;6.586;2023-04-09T06:40:13;25.43;;;22.47;;
14316;SDS011;7242;50.858;6.586;2023-04-09T06:43:15;23.70;;;20.40;;
14316;SDS011;7242;50.858;6.586;2023-04-09T06:46:21;25.17;;;22.47;;
14316;SDS011;7242;50.858;6.586;2023-04-09T06:49:22;24.70;;;22.07;;
14316;SDS011;7242;50.858;6.586;2023-04-09T06:52:23;27.20;;;23.37;;
14316;SDS011;7242;50.858;6.586;2023-04-09T06:55:23;24.27;;;21.37;;
14316;SDS011;7242;50.858;6.586;2023-04-09T06:58:25;24.27;;;21.53;;
14316;SDS011;7242;50.858;6.586;2023-04-09T07:01:27;26.93;;;23.50;;
14316;SDS011;7242;50.858;6.586;2023-04-09T07:04:27;25.83;;;23.13;;
14316;SDS011;7242;50.858;6.586;2023-04-09T07:07:28;25.73;;;22.93;;
14316;SDS011;7242;50.858;6.586;2023-04-09T07:10:29;25.07;;;22.33;;
14316;SDS011;7242;50.858;6.586;2023-04-09T07:13:30;24.87;;;22.33;;
14316;SDS011;7242;50.858;6.586;2023-04-09T07:16:32;24.77;;;22.20;;
14316;SDS011;7242;50.858;6.586;2023-04-09T07:19:32;23.37;;;20.87;;
14316;SDS011;7242;50.858;6.586;2023-04-09T07:22:34;23.80;;;21.40;;
14316;SDS011;7242;50.858;6.586;2023-04-09T07:25:35;22.90;;;20.50;;
14316;SDS011;7242;50.858;6.586;2023-04-09T07:28:36;22.83;;;20.60;;
14316;SDS011;7242;50.858;6.586;2023-04-09T07:31:36;21.77;;;19.57;;
14316;SDS011;7242;50.858;6.586;2023-04-09T07:34:37;20.17;;;18.23;;
14316;SDS011;7242;50.858;6.586;2023-04-09T07:37:38;19.80;;;17.90;;
14316;SDS011;7242;50.858;6.586;2023-04-09T07:40:39;19.63;;;17.67;;
14316;SDS011;7242;50.858;6.586;2023-04-09T07:43:40;21.60;;;19.30;;
14316;SDS011;7242;50.858;6.586;2023-04-09T07:46:42;19.23;;;17.43;;
14316;SDS011;7242;50.858;6.586;2023-04-09T07:49:43;18.17;;;16.40;;
14316;SDS011;7242;50.858;6.586;2023-04-09T07:52:43;17.00;;;15.40;;
14316;SDS011;7242;50.858;6.586;2023-04-09T07:55:45;17.00;;;15.40;;
14316;SDS011;7242;50.858;6.586;2023-04-09T07:58:45;18.63;;;16.93;;
14316;SDS011;7242;50.858;6.586;2023-04-09T08:01:48;16.20;;;14.60;;
14316;SDS011;7242;50.858;6.586;2023-04-09T08:04:49;17.43;;;15.73;;
14316;SDS011;7242;50.858;6.586;2023-04-09T08:07:50;15.83;;;14.33;;
14316;SDS011;7242;50.858;6.586;2023-04-09T08:10:52;17.40;;;15.80;;
14316;SDS011;7242;50.858;6.586;2023-04-09T08:13:53;17.43;;;15.83;;
14316;SDS011;7242;50.858;6.586;2023-04-09T08:16:55;17.50;;;15.73;;
14316;SDS011;7242;50.858;6.586;2023-04-09T08:19:55;17.10;;;15.07;;
14316;SDS011;7242;50.858;6.586;2023-04-09T08:22:56;19.10;;;16.00;;
14316;SDS011;7242;50.858;6.586;2023-04-09T08:25:58;18.10;;;16.33;;
14316;SDS011;7242;50.858;6.586;2023-04-09T08:28:58;18.27;;;16.37;;
14316;SDS011;7242;50.858;6.586;2023-04-09T08:31:59;17.60;;;15.80;;
14316;SDS011;7242;50.858;6.586;2023-04-09T08:35:00;17.17;;;15.07;;
14316;SDS011;7242;50.858;6.586;2023-04-09T08:38:01;17.37;;;15.57;;
14316;SDS011;7242;50.858;6.586;2023-04-09T08:41:02;17.03;;;15.23;;
14316;SDS011;7242;50.858;6.586;2023-04-09T08:44:03;14.97;;;13.47;;
14316;SDS011;7242;50.858;6.586;2023-04-09T08:47:06;14.40;;;12.90;;
14316;SDS011;7242;50.858;6.586;2023-04-09T08:50:10;15.47;;;13.97;;
14316;SDS011;7242;50.858;6.586;2023-04-09T08:53:11;14.10;;;12.70;;
14316;SDS011;7242;50.858;6.586;2023-04-09T08:56:14;15.07;;;13.57;;
14316;SDS011;7242;50.858;6.586;2023-04-09T08:59:16;12.87;;;11.53;;
14316;SDS011;7242;50.858;6.586;2023-04-09T09:02:20;12.17;;;10.60;;
14316;SDS011;7242;50.858;6.586;2023-04-09T09:09:00;12.57;;;11.33;;
14316;SDS011;7242;50.858;6.586;2023-04-09T09:12:11;12.93;;;11.63;;
14316;SDS011;7242;50.858;6.586;2023-04-09T09:15:28;10.73;;;9.63;;
14316;SDS011;7242;50.858;6.586;2023-04-09T09:18:38;12.90;;;10.93;;
14316;SDS011;7242;50.858;6.586;2023-04-09T09:21:40;9.83;;;8.83;;
14316;SDS011;7242;50.858;6.586;2023-04-09T09:24:44;10.37;;;9.27;;
14316;SDS011;7242;50.858;6.586;2023-04-09T09:27:47;10.20;;;9.17;;
14316;SDS011;7242;50.858;6.586;2023-04-09T09:30:48;8.77;;;7.47;;
14316;SDS011;7242;50.858;6.586;2023-04-09T09:33:49;8.10;;;7.30;;
14316;SDS011;7242;50.858;6.586;2023-04-09T09:36:51;7.53;;;6.60;;
14316;SDS011;7242;50.858;6.586;2023-04-09T09:39:52;8.87;;;6.37;;
14316;SDS011;7242;50.858;6.586;2023-04-09T09:42:57;7.87;;;7.07;;
14316;SDS011;7242;50.858;6.586;2023-04-09T09:45:57;8.67;;;7.57;;
14316;SDS011;7242;50.858;6.586;2023-04-09T09:48:59;8.00;;;7.10;;
14316;SDS011;7242;50.858;6.586;2023-04-09T09:52:00;9.00;;;7.37;;
14316;SDS011;7242;50.858;6.586;2023-04-09T09:55:03;7.93;;;6.17;;
14316;SDS011;7242;50.858;6.586;2023-04-09T09:58:15;6.80;;;6.10;;
14316;SDS011;7242;50.858;6.586;2023-04-09T10:01:19;6.83;;;6.13;;
14316;SDS011;7242;50.858;6.586;2023-04-09T10:04:23;6.40;;;5.80;;
14316;SDS011;7242;50.858;6.586;2023-04-09T10:07:28;6.80;;;6.10;;
14316;SDS011;7242;50.858;6.586;2023-04-09T10:10:31;6.20;;;5.60;;
14316;SDS011;7242;50.858;6.586;2023-04-09T10:16:40;5.73;;;5.13;;
14316;SDS011;7242;50.858;6.586;2023-04-09T10:19:43;5.93;;;5.33;;
14316;SDS011;7242;50.858;6.586;2023-04-09T10:23:10;6.00;;;5.00;;
14316;SDS011;7242;50.858;6.586;2023-04-09T10:26:18;5.50;;;5.00;;
14316;SDS011;7242;50.858;6.586;2023-04-09T10:29:25;5.40;;;4.90;;
14316;SDS011;7242;50.858;6.586;2023-04-09T10:32:27;6.10;;;5.50;;
14316;SDS011;7242;50.858;6.586;2023-04-09T10:35:35;5.47;;;4.93;;
14316;SDS011;7242;50.858;6.586;2023-04-09T10:38:36;5.17;;;4.67;;
14316;SDS011;7242;50.858;6.586;2023-04-09T10:41:42;6.00;;;5.20;;
14316;SDS011;7242;50.858;6.586;2023-04-09T10:44:45;6.17;;;5.20;;
14316;SDS011;7242;50.858;6.586;2023-04-09T10:48:02;5.60;;;5.10;;
14316;SDS011;7242;50.858;6.586;2023-04-09T10:51:03;5.73;;;5.13;;
14316;SDS011;7242;50.858;6.586;2023-04-09T10:54:05;5.17;;;4.67;;
14316;SDS011;7242;50.858;6.586;2023-04-09T10:57:31;5.23;;;4.73;;
14316;SDS011;7242;50.858;6.586;2023-04-09T11:00:35;5.90;;;5.30;;
14316;SDS011;7242;50.858;6.586;2023-04-09T11:03:42;6.43;;;5.80;;
14316;SDS011;7242;50.858;6.586;2023-04-09T11:06:45;5.53;;;4.90;;
14316;SDS011;7242;50.858;6.586;2023-04-09T11:09:48;6.60;;;5.50;;
14316;SDS011;7242;50.858;6.586;2023-04-09T11:12:48;6.07;;;5.47;;
14316;SDS011;7242;50.858;6.586;2023-04-09T11:15:49;6.20;;;4.93;;
14316;SDS011;7242;50.858;6.586;2023-04-09T11:18:50;6.20;;;5.07;;
14316;SDS011;7242;50.858;6.586;2023-04-09T11:21:52;5.50;;;5.00;;
14316;SDS011;7242;50.858;6.586;2023-04-09T11:24:53;6.27;;;5.67;;
14316;SDS011;7242;50.858;6.586;2023-04-09T11:27:54;5.33;;;4.83;;
14316;SDS011;7242;50.858;6.586;2023-04-09T11:30:55;6.87;;;5.17;;
14316;SDS011;7242;50.858;6.586;2023-04-09T11:33:56;6.27;;;5.17;;
14316;SDS011;7242;50.858;6.586;2023-04-09T11:36:57;5.80;;;4.90;;
14316;SDS011;7242;50.858;6.586;2023-04-09T11:39:58;5.70;;;5.20;;
14316;SDS011;7242;50.858;6.586;2023-04-09T11:42:59;5.53;;;4.93;;
14316;SDS011;7242;50.858;6.586;2023-04-09T11:46:02;5.90;;;5.30;;
14316;SDS011;7242;50.858;6.586;2023-04-09T11:49:03;7.00;;;5.30;;
14316;SDS011;7242;50.858;6.586;2023-04-09T11:52:04;6.33;;;5.73;;
14316;SDS011;7242;50.858;6.586;2023-04-09T11:55:05;6.20;;;5.60;;
14316;SDS011;7242;50.858;6.586;2023-04-09T11:58:09;6.83;;;6.13;;
14316;SDS011;7242;50.858;6.586;2023-04-09T12:01:10;7.00;;;6.30;;
14316;SDS011;7242;50.858;6.586;2023-04-09T12:04:18;6.93;;;6.27;;
14316;SDS011;7242;50.858;6.586;2023-04-09T12:07:19;6.30;;;5.70;;
14316;SDS011;7242;50.858;6.586;2023-04-09T12:10:24;6.37;;;5.67;;
14316;SDS011;7242;50.858;6.586;2023-04-09T12:13:31;6.20;;;5.60;;
14316;SDS011;7242;50.858;6.586;2023-04-09T12:16:33;6.07;;;5.47;;
14316;SDS011;7242;50.858;6.586;2023-04-09T12:19:35;6.80;;;6.13;;
14316;SDS011;7242;50.858;6.586;2023-04-09T12:22:35;6.67;;;5.97;;
14316;SDS011;7242;50.858;6.586;2023-04-09T12:25:40;6.70;;;6.00;;
14316;SDS011;7242;50.858;6.586;2023-04-09T12:28:42;7.07;;;6.37;;
14316;SDS011;7242;50.858;6.586;2023-04-09T12:31:43;6.93;;;5.97;;
14316;SDS011;7242;50.858;6.586;2023-04-09T12:34:44;6.23;;;5.63;;
14316;SDS011;7242;50.858;6.586;2023-04-09T12:37:46;7.43;;;6.40;;
14316;SDS011;7242;50.858;6.586;2023-04-09T12:40:47;6.60;;;5.80;;
14316;SDS011;7242;50.858;6.586;2023-04-09T12:43:48;7.23;;;5.83;;
14316;SDS011;7242;50.858;6.586;2023-04-09T12:46:50;6.73;;;5.73;;
14316;SDS011;7242;50.858;6.586;2023-04-09T12:49:50;6.30;;;5.70;;
14316;SDS011;7242;50.858;6.586;2023-04-09T12:52:51;6.47;;;5.80;;
14316;SDS011;7242;50.858;6.586;2023-04-09T12:55:52;6.83;;;6.03;;
14316;SDS011;7242;50.858;6.586;2023-04-09T12:58:53;5.73;;;5.20;;
14316;SDS011;7242;50.858;6.586;2023-04-09T13:01:53;5.57;;;5.07;;
14316;SDS011;7242;50.858;6.586;2023-04-09T13:04:54;5.77;;;5.20;;
14316;SDS011;7242;50.858;6.586;2023-04-09T13:07:55;6.67;;;6.03;;
14316;SDS011;7242;50.858;6.586;2023-04-09T13:10:56;6.67;;;5.70;;
14316;SDS011;7242;50.858;6.586;2023-04-09T13:13:57;6.30;;;5.70;;
14316;SDS011;7242;50.858;6.586;2023-04-09T13:16:58;6.23;;;5.43;;
14316;SDS011;7242;50.858;6.586;2023-04-09T13:19:59;5.30;;;4.80;;
14316;SDS011;7242;50.858;6.586;2023-04-09T13:23:00;5.90;;;5.33;;
14316;SDS011;7242;50.858;6.586;2023-04-09T13:26:02;5.90;;;5.30;;
14316;SDS011;7242;50.858;6.586;2023-04-09T13:29:02;5.67;;;5.10;;
14316;SDS011;7242;50.858;6.586;2023-04-09T13:32:03;5.17;;;4.67;;
14316;SDS011;7242;50.858;6.586;2023-04-09T13:35:06;5.23;;;4.73;;
14316;SDS011;7242;50.858;6.586;2023-04-09T13:38:07;5.50;;;5.00;;
14316;SDS011;7242;50.858;6.586;2023-04-09T13:41:08;5.23;;;4.73;;
14316;SDS011;7242;50.858;6.586;2023-04-09T13:44:09;5.30;;;4.80;;
14316;SDS011;7242;50.858;6.586;2023-04-09T13:47:11;4.97;;;4.47;;
14316;SDS011;7242;50.858;6.586;2023-04-09T13:50:12;4.57;;;4.17;;
14316;SDS011;7242;50.858;6.586;2023-04-09T13:53:13;5.33;;;4.83;;
14316;SDS011;7242;50.858;6.586;2023-04-09T13:56:15;5.30;;;4.80;;
14316;SDS011;7242;50.858;6.586;2023-04-09T13:59:16;5.47;;;4.97;;
14316;SDS011;7242;50.858;6.586;2023-04-09T14:02:17;6.23;;;5.63;;
14316;SDS011;7242;50.858;6.586;2023-04-09T14:05:18;6.10;;;5.50;;
14316;SDS011;7242;50.858;6.586;2023-04-09T14:08:18;5.93;;;4.77;;
14316;SDS011;7242;50.858;6.586;2023-04-09T14:11:19;4.70;;;4.30;;
14316;SDS011;7242;50.858;6.586;2023-04-09T14:14:21;4.87;;;4.37;;
14316;SDS011;7242;50.858;6.586;2023-04-09T14:17:22;5.43;;;4.93;;
14316;SDS011;7242;50.858;6.586;2023-04-09T14:20:23;5.53;;;4.70;;
14316;SDS011;7242;50.858;6.586;2023-04-09T14:23:26;4.97;;;4.50;;
14316;SDS011;7242;50.858;6.586;2023-04-09T14:26:27;5.30;;;4.80;;
14316;SDS011;7242;50.858;6.586;2023-04-09T14:29:28;4.90;;;4.40;;
14316;SDS011;7242;50.858;6.586;2023-04-09T14:32:29;4.90;;;4.40;;
14316;SDS011;7242;50.858;6.586;2023-04-09T14:35:29;4.93;;;4.43;;
14316;SDS011;7242;50.858;6.586;2023-04-09T14:38:31;5.10;;;4.47;;
14316;SDS011;7242;50.858;6.586;2023-04-09T14:41:32;4.73;;;4.33;;
14316;SDS011;7242;50.858;6.586;2023-04-09T14:44:35;4.73;;;4.30;;
14316;SDS011;7242;50.858;6.586;2023-04-09T14:47:36;4.60;;;4.20;;
14316;SDS011;7242;50.858;6.586;2023-04-09T14:50:37;4.90;;;4.40;;
14316;SDS011;7242;50.858;6.586;2023-04-09T14:53:38;5.30;;;4.80;;
14316;SDS011;7242;50.858;6.586;2023-04-09T14:56:39;5.10;;;4.60;;
14316;SDS011;7242;50.858;6.586;2023-04-09T14:59:40;5.10;;;4.60;;
14316;SDS011;7242;50.858;6.586;2023-04-09T15:02:40;4.73;;;4.33;;
14316;SDS011;7242;50.858;6.586;2023-04-09T15:05:41;4.97;;;4.30;;
14316;SDS011;7242;50.858;6.586;2023-04-09T15:08:43;4.87;;;4.47;;
14316;SDS011;7242;50.858;6.586;2023-04-09T15:11:44;4.50;;;4.10;;
14316;SDS011;7242;50.858;6.586;2023-04-09T15:14:45;4.93;;;4.43;;
14316;SDS011;7242;50.858;6.586;2023-04-09T15:17:46;4.63;;;4.23;;
14316;SDS011;7242;50.858;6.586;2023-04-09T15:20:47;4.93;;;4.10;;
14316;SDS011;7242;50.858;6.586;2023-04-09T15:23:51;4.83;;;4.40;;
14316;SDS011;7242;50.858;6.586;2023-04-09T15:26:52;4.53;;;4.13;;
14316;SDS011;7242;50.858;6.586;2023-04-09T15:29:53;5.00;;;4.50;;
14316;SDS011;7242;50.858;6.586;2023-04-09T15:32:54;5.33;;;4.83;;
14316;SDS011;7242;50.858;6.586;2023-04-09T15:35:55;5.80;;;4.83;;
14316;SDS011;7242;50.858;6.586;2023-04-09T15:38:56;5.30;;;4.80;;
14316;SDS011;7242;50.858;6.586;2023-04-09T15:41:57;4.80;;;4.30;;
14316;SDS011;7242;50.858;6.586;2023-04-09T15:44:57;4.30;;;3.90;;
14316;SDS011;7242;50.858;6.586;2023-04-09T15:47:58;5.10;;;4.07;;
14316;SDS011;7242;50.858;6.586;2023-04-09T15:50:59;4.90;;;4.20;;
14316;SDS011;7242;50.858;6.586;2023-04-09T15:54:00;4.73;;;4.33;;
14316;SDS011;7242;50.858;6.586;2023-04-09T15:57:00;4.90;;;4.40;;
14316;SDS011;7242;50.858;6.586;2023-04-09T16:00:03;5.03;;;4.53;;
14316;SDS011;7242;50.858;6.586;2023-04-09T16:03:06;5.47;;;4.40;;
14316;SDS011;7242;50.858;6.586;2023-04-09T16:06:08;4.70;;;4.30;;
14316;SDS011;7242;50.858;6.586;2023-04-09T16:09:12;4.60;;;4.20;;
14316;SDS011;7242;50.858;6.586;2023-04-09T16:12:12;4.80;;;4.40;;
14316;SDS011;7242;50.858;6.586;2023-04-09T16:15:13;5.20;;;4.37;;
14316;SDS011;7242;50.858;6.586;2023-04-09T16:18:14;5.00;;;4.50;;
14316;SDS011;7242;50.858;6.586;2023-04-09T16:21:16;5.67;;;5.07;;
14316;SDS011;7242;50.858;6.586;2023-04-09T16:24:16;5.20;;;4.70;;
14316;SDS011;7242;50.858;6.586;2023-04-09T16:27:17;4.80;;;4.30;;
14316;SDS011;7242;50.858;6.586;2023-04-09T16:30:18;4.80;;;4.40;;
14316;SDS011;7242;50.858;6.586;2023-04-09T16:33:20;4.80;;;4.27;;
14316;SDS011;7242;50.858;6.586;2023-04-09T16:36:20;4.90;;;4.50;;
14316;SDS011;7242;50.858;6.586;2023-04-09T16:39:21;7.20;;;5.03;;
14316;SDS011;7242;50.858;6.586;2023-04-09T16:42:22;5.30;;;4.80;;
14316;SDS011;7242;50.858;6.586;2023-04-09T16:45:26;4.50;;;4.00;;
14316;SDS011;7242;50.858;6.586;2023-04-09T16:48:27;5.77;;;4.97;;
14316;SDS011;7242;50.858;6.586;2023-04-09T16:51:27;5.40;;;4.90;;
14316;SDS011;7242;50.858;6.586;2023-04-09T16:54:28;4.70;;;4.30;;
14316;SDS011;7242;50.858;6.586;2023-04-09T16:57:30;4.53;;;3.90;;
14316;SDS011;7242;50.858;6.586;2023-04-09T17:00:31;4.87;;;4.40;;
14316;SDS011;7242;50.858;6.586;2023-04-09T17:03:31;4.67;;;4.20;;
14316;SDS011;7242;50.858;6.586;2023-04-09T17:06:32;5.00;;;4.50;;
14316;SDS011;7242;50.858;6.586;2023-04-09T17:09:33;4.57;;;4.10;;
14316;SDS011;7242;50.858;6.586;2023-04-09T17:12:34;4.93;;;4.10;;
14316;SDS011;7242;50.858;6.586;2023-04-09T17:15:35;5.00;;;4.50;;
14316;SDS011;7242;50.858;6.586;2023-04-09T17:18:36;4.87;;;4.40;;
14316;SDS011;7242;50.858;6.586;2023-04-09T17:21:38;5.00;;;4.30;;
14316;SDS011;7242;50.858;6.586;2023-04-09T17:24:39;4.70;;;4.30;;
14316;SDS011;7242;50.858;6.586;2023-04-09T17:27:39;4.73;;;4.33;;
14316;SDS011;7242;50.858;6.586;2023-04-09T17:30:42;5.17;;;4.67;;
14316;SDS011;7242;50.858;6.586;2023-04-09T17:33:44;4.60;;;4.20;;
14316;SDS011;7242;50.858;6.586;2023-04-09T17:36:47;4.97;;;4.47;;
14316;SDS011;7242;50.858;6.586;2023-04-09T17:39:55;4.97;;;4.47;;
14316;SDS011;7242;50.858;6.586;2023-04-09T17:42:56;4.90;;;4.40;;
14316;SDS011;7242;50.858;6.586;2023-04-09T17:45:58;4.80;;;4.27;;
14316;SDS011;7242;50.858;6.586;2023-04-09T17:48:58;5.30;;;4.80;;
14316;SDS011;7242;50.858;6.586;2023-04-09T17:51:59;5.07;;;4.57;;
14316;SDS011;7242;50.858;6.586;2023-04-09T17:55:03;5.20;;;4.70;;
14316;SDS011;7242;50.858;6.586;2023-04-09T17:58:06;5.07;;;4.33;;
14316;SDS011;7242;50.858;6.586;2023-04-09T18:01:07;5.70;;;4.87;;
14316;SDS011;7242;50.858;6.586;2023-04-09T18:04:08;5.10;;;4.43;;
14316;SDS011;7242;50.858;6.586;2023-04-09T18:07:09;5.57;;;4.43;;
14316;SDS011;7242;50.858;6.586;2023-04-09T18:10:10;5.50;;;4.93;;
14316;SDS011;7242;50.858;6.586;2023-04-09T18:13:11;5.63;;;4.90;;
14316;SDS011;7242;50.858;6.586;2023-04-09T18:16:12;5.43;;;4.93;;
14316;SDS011;7242;50.858;6.586;2023-04-09T18:19:13;5.57;;;5.07;;
14316;SDS011;7242;50.858;6.586;2023-04-09T18:22:15;5.30;;;4.80;;
14316;SDS011;7242;50.858;6.586;2023-04-09T18:25:15;5.27;;;4.77;;
14316;SDS011;7242;50.858;6.586;2023-04-09T18:28:16;5.50;;;5.00;;
14316;SDS011;7242;50.858;6.586;2023-04-09T18:31:17;6.00;;;5.40;;
14316;SDS011;7242;50.858;6.586;2023-04-09T18:34:18;5.70;;;5.10;;
14316;SDS011;7242;50.858;6.586;2023-04-09T18:37:20;6.00;;;5.40;;